Terminal Aerodrome Forecast
Issued by NWS

Home | Current Version | Previous Version | Text Only | Print | Product List | Glossary On
Versions: 1 2 3 4 5 6 7 8 9 10 11 12 13 14 15 16 17 18 19
000
FTAK31 PAJN 231300 AAA
TAFAYA
TAF AMD
PAYA 231329Z 2313/2412 VRB03KT P6SM BKN020 OVC050
     FM231500 10005KT P6SM VCSH BKN015 OVC050
     FM231800 12006KT 6SM -RA BKN025 OVC050
     FM240300 14006KT P6SM -RA SCT025 OVC040
     FM240600 09003KT P6SM -RA SCT015 BKN025 OVC040
      AMD LTD TO CLD VIS AND WIND 2401/2410=

USA.gov is the U.S. government's official web portal to all federal, state and local government web resources and services.